Ponciano Arriaga International Airport
MMSP : rendu visible

Aérodrome :











RETROUVEZ-NOUS SUR...

 
LOGIN :

S'inscrire | Disclaimer

   EN    FR    IT 

 









Légende :    VFR   VFR Marginal   IFR   IFR Intensif   IFR Très Intensif
Visi : 
Plafond : 
>= 8 km
>= 3000ft
5 à 8 km
1000 à 3000 ft
1500m à 5 km
500 à 1000 ft
800 à 1500m
200 à 500 ft
< 800m
< 200 ft
Symboles :   Orages  Brouillard  Fortes neiges  Fortes précipitations  Vent > 20 kt






- Altitude de l'aérodrome : 6035 ft
- Code IATA : SLP


MMSP - Ponciano Arriaga International

DERNIER METAR :
  • 070248Z 09006KT 8SM FEW030 22/12 A3008 RMK SLP044 52013 957 8/500

METARs EXPIRÉS :
  • 070144Z 09007KT 10SM FEW030 24/08 A3006 RMK 8/500
  • 070041Z 09009KT 10SM FEW030 26/08 A3004 RMK 8/400

TAF TAF MMSP
Valide du 07 à 00h jusqu'au 08 à 06h UTC


062306Z 0700/0806 09006KT P6SM SCT030 TX30/0722Z TN16/0713Z
BECMG 0702/0703 00000KT SKC
FM071000 00000KT 5SM HZ SCT015
TEMPO 0711/0715 3SM BR HZ BKN015
FM071600 00000KT 6SM HZ SCT020
BECMG 0720/0721 34012KT
FM080100 12008KT P6SM SCT020
FIR MMFR / Amérique du Nord



MET'MAP, la Météo Aéronautique d'un coup d'oeil ! - Copyright ORBIFLY Décembre 2007 - Disclaimer

ORBIFLY MET'MAP TEAM :

Programmation & Développement : Alexandra Zaïnal
Sur une idée originale de : Baudouin d'Aumeries
Assistance à la programmation : Marc-Olivier Méhu
Soutien technique & logistique : Manuel Goepfert

Contact : metmap@orbifly.com




SOURCES & CREDITS :

   NOAA       Earth
Advisory